createdAt,value
2019-03-19T00:02:05.371Z,10.80
2019-03-19T00:04:34.735Z,11.20
2019-03-19T00:07:04.337Z,7.77
2019-03-19T00:09:34.277Z,6.30
2019-03-19T00:12:03.874Z,9.77
2019-03-19T00:14:33.540Z,13.62
2019-03-19T00:17:03.516Z,12.03
2019-03-19T00:19:32.906Z,13.10
2019-03-19T00:22:02.313Z,17.23
2019-03-19T00:24:31.978Z,13.73
2019-03-19T00:27:01.504Z,14.33
2019-03-19T00:29:49.980Z,13.63
2019-03-19T00:32:19.505Z,11.10
2019-03-19T00:34:49.165Z,14.43
2019-03-19T00:37:18.757Z,9.73
2019-03-19T00:39:48.383Z,11.67
2019-03-19T00:42:17.760Z,13.63
2019-03-19T00:44:47.406Z,12.28
2019-03-19T00:47:16.786Z,20.13
2019-03-19T00:49:46.438Z,11.93
2019-03-19T00:52:15.808Z,11.30
2019-03-19T00:54:45.498Z,13.10
2019-03-19T00:57:14.932Z,9.30
2019-03-19T00:59:44.879Z,17.07
2019-03-19T01:02:14.546Z,16.73
2019-03-19T01:04:43.898Z,17.20
2019-03-19T01:07:13.494Z,13.27
2019-03-19T01:09:42.875Z,10.60
2019-03-19T01:12:12.532Z,9.30
2019-03-19T01:14:41.889Z,18.30
2019-03-19T01:17:11.535Z,16.73
2019-03-19T01:19:40.911Z,11.40
2019-03-19T01:22:10.858Z,16.67
2019-03-19T01:24:40.836Z,13.43
2019-03-19T01:27:10.193Z,9.73
2019-03-19T01:29:39.883Z,14.57
2019-03-19T01:32:09.525Z,12.33
2019-03-19T01:34:38.899Z,13.73
2019-03-19T01:37:08.625Z,14.23
2019-03-19T01:39:38.270Z,8.30
2019-03-19T01:42:07.754Z,14.90
2019-03-19T01:44:37.372Z,8.53
2019-03-19T01:47:06.975Z,10.40
2019-03-19T01:49:36.877Z,9.43
2019-03-19T01:52:06.527Z,9.40
2019-03-19T01:54:35.988Z,13.80
2019-03-19T01:57:05.340Z,22.03
2019-03-19T01:59:34.859Z,10.77
2019-03-19T02:02:04.220Z,13.67
2019-03-19T02:04:33.898Z,14.43
2019-03-19T02:07:03.810Z,21.77
2019-03-19T02:09:33.516Z,14.10
2019-03-19T02:12:02.878Z,10.90
2019-03-19T02:14:32.249Z,19.67
2019-03-19T02:17:01.736Z,15.80
2019-03-19T02:19:31.104Z,18.40
2019-03-19T02:22:00.764Z,15.03
2019-03-19T02:24:30.762Z,11.30
2019-03-19T02:27:00.150Z,19.10
2019-03-19T02:29:29.789Z,21.77
2019-03-19T02:31:59.211Z,20.20
2019-03-19T02:34:28.852Z,13.43
2019-03-19T02:36:58.220Z,8.93
2019-03-19T02:39:27.876Z,11.25
2019-03-19T02:41:57.275Z,14.70
2019-03-19T02:44:26.897Z,16.77
2019-03-19T02:46:56.340Z,12.23
2019-03-19T02:49:26.328Z,19.50
2019-03-19T02:51:55.886Z,13.07
2019-03-19T02:54:25.364Z,15.60
2019-03-19T02:56:55.003Z,13.72
2019-03-19T02:59:25.690Z,9.95
2019-03-19T03:01:55.303Z,9.83
2019-03-19T03:04:25.279Z,14.73
2019-03-19T03:06:54.947Z,12.77
2019-03-19T03:09:25.554Z,15.05
2019-03-19T03:11:56.722Z,14.40
2019-03-19T03:14:46.329Z,14.00
2019-03-19T03:17:36.142Z,12.20
2019-03-19T03:20:24.850Z,9.40
2019-03-19T03:22:54.231Z,14.37
2019-03-19T03:25:23.574Z,9.87
2019-03-19T03:27:53.110Z,16.00
2019-03-19T03:33:25.730Z,10.45
2019-03-19T03:35:55.263Z,13.10
2019-03-19T03:38:25.502Z,20.43
2019-03-19T03:40:55.155Z,18.67
2019-03-19T03:43:25.471Z,15.65
2019-03-19T03:45:55.079Z,16.80
2019-03-19T03:48:25.392Z,14.58
2019-03-19T03:50:54.754Z,14.63
2019-03-19T03:53:25.542Z,21.30
2019-03-19T03:55:55.267Z,14.60
2019-03-19T03:58:25.569Z,12.40
2019-03-19T04:00:55.231Z,15.33
2019-03-19T04:03:25.492Z,21.10
2019-03-19T04:05:55.135Z,18.32
2019-03-19T04:08:25.529Z,14.80
2019-03-19T04:10:55.184Z,15.38
2019-03-19T04:13:25.488Z,19.30
2019-03-19T04:15:55.149Z,13.53
2019-03-19T04:18:25.584Z,10.55
2019-03-19T04:20:55.236Z,11.65
2019-03-19T04:26:21.334Z,13.57
2019-03-19T04:31:31.528Z,13.13
2019-03-19T04:34:01.170Z,13.90
2019-03-19T04:36:30.835Z,12.23
2019-03-19T04:39:00.444Z,18.20
2019-03-19T04:41:31.586Z,13.60
2019-03-19T04:44:01.253Z,17.50
2019-03-19T04:46:30.898Z,16.20
2019-03-19T04:49:19.642Z,19.30
2019-03-19T04:51:49.321Z,24.63
2019-03-19T04:54:18.684Z,18.90
2019-03-19T04:56:48.385Z,20.23
2019-03-19T04:59:17.735Z,17.93
2019-03-19T05:01:47.361Z,14.60
2019-03-19T05:04:16.727Z,22.07
2019-03-19T05:06:46.389Z,19.55
2019-03-19T05:09:15.760Z,20.33
2019-03-19T05:11:45.691Z,14.00
2019-03-19T05:14:34.981Z,12.95
2019-03-19T05:17:04.479Z,12.07
2019-03-19T05:19:33.855Z,9.50
2019-03-19T05:22:03.522Z,14.58
2019-03-19T05:24:32.886Z,17.93
2019-03-19T05:27:03.943Z,12.70
2019-03-19T05:29:33.755Z,12.20
2019-03-19T05:32:03.123Z,13.20
2019-03-19T05:34:33.055Z,12.47
2019-03-19T05:37:02.642Z,18.00
2019-03-19T05:39:32.012Z,13.43
2019-03-19T05:42:01.608Z,17.37
2019-03-19T05:44:31.283Z,20.23
2019-03-19T05:47:00.642Z,20.90
2019-03-19T05:49:30.018Z,17.37
2019-03-19T05:51:59.693Z,17.07
2019-03-19T05:54:29.048Z,18.60
2019-03-19T05:56:58.624Z,18.73
2019-03-19T05:59:28.324Z,20.20
2019-03-19T06:01:57.697Z,18.70
2019-03-19T06:04:27.339Z,19.43
2019-03-19T06:06:57.063Z,20.53
2019-03-19T06:09:26.761Z,20.33
2019-03-19T06:11:56.138Z,21.77
2019-03-19T06:14:26.401Z,18.33
2019-03-19T06:16:55.777Z,17.73
2019-03-19T06:19:26.039Z,14.20
2019-03-19T06:21:57.365Z,16.90
2019-03-19T06:24:27.023Z,20.70
2019-03-19T06:26:56.733Z,26.90
2019-03-19T06:29:26.392Z,16.70
2019-03-19T06:31:55.756Z,20.33
2019-03-19T06:34:25.999Z,15.13
2019-03-19T06:36:55.357Z,7.53
2019-03-19T06:39:26.184Z,10.80
2019-03-19T06:41:55.836Z,8.07
2019-03-19T06:44:26.299Z,12.35
2019-03-19T06:46:55.834Z,19.00
2019-03-19T06:49:26.077Z,24.45
2019-03-19T06:51:56.252Z,14.53
2019-03-19T06:54:26.887Z,15.90
2019-03-19T06:56:56.258Z,13.53
2019-03-19T06:59:32.039Z,10.80
2019-03-19T07:02:01.706Z,11.08
2019-03-19T07:04:31.371Z,11.03
2019-03-19T07:07:00.969Z,7.90
2019-03-19T07:09:30.319Z,9.60
2019-03-19T07:12:01.560Z,10.00
2019-03-19T07:14:31.346Z,9.50
2019-03-19T07:19:54.815Z,8.20
2019-03-19T07:22:24.190Z,22.03
2019-03-19T07:24:53.831Z,7.60
2019-03-19T07:27:23.211Z,17.50
2019-03-19T07:33:27.321Z,9.83
2019-03-19T07:35:57.034Z,12.77
2019-03-19T07:38:26.412Z,3.30
2019-03-19T07:40:56.006Z,12.57
2019-03-19T07:43:26.261Z,8.35
2019-03-19T07:45:55.629Z,11.27
2019-03-19T07:48:26.657Z,9.15
2019-03-19T07:50:56.045Z,11.93
2019-03-19T07:53:26.607Z,16.75
2019-03-19T07:55:56.016Z,8.23
2019-03-19T07:58:32.987Z,11.03
2019-03-19T08:01:16.681Z,6.97
2019-03-19T08:04:05.756Z,9.27
2019-03-19T08:06:35.399Z,10.65
2019-03-19T08:09:25.412Z,10.23
2019-03-19T08:11:55.074Z,14.43
2019-03-19T08:14:24.438Z,9.10
2019-03-19T08:16:54.012Z,13.73
2019-03-19T08:19:23.388Z,11.03
2019-03-19T08:21:53.315Z,18.25
2019-03-19T08:24:24.285Z,12.80
2019-03-19T08:26:53.658Z,8.17
2019-03-19T08:29:42.499Z,17.47
2019-03-19T08:32:12.110Z,12.27
2019-03-19T08:34:41.752Z,5.33
2019-03-19T08:37:11.225Z,12.53
2019-03-19T08:39:40.857Z,8.10
2019-03-19T08:42:10.228Z,11.67
2019-03-19T08:44:39.578Z,6.43
2019-03-19T08:47:09.191Z,9.23
2019-03-19T08:52:17.856Z,5.33
2019-03-19T08:54:47.326Z,7.40
2019-03-19T08:57:16.669Z,9.90
2019-03-19T08:59:46.176Z,10.43
2019-03-19T09:02:15.525Z,8.40
2019-03-19T09:04:45.208Z,7.83
2019-03-19T09:07:14.609Z,2.07
2019-03-19T09:13:18.304Z,13.62
2019-03-19T09:15:47.672Z,11.27
2019-03-19T09:18:17.038Z,9.20
2019-03-19T09:20:46.606Z,8.43
2019-03-19T09:23:15.973Z,8.07
2019-03-19T09:25:45.442Z,7.40
2019-03-19T09:28:14.806Z,7.50
2019-03-19T09:30:44.188Z,10.15
2019-03-19T09:33:13.639Z,8.27
2019-03-19T09:35:43.240Z,8.00
2019-03-19T09:38:12.615Z,9.10
2019-03-19T09:40:41.968Z,7.70
2019-03-19T09:43:11.525Z,8.10
2019-03-19T09:45:40.872Z,8.10
2019-03-19T09:48:10.250Z,12.37
2019-03-19T09:50:40.139Z,12.37
2019-03-19T09:53:09.643Z,13.60
2019-03-19T09:55:39.003Z,5.30
2019-03-19T09:58:08.378Z,6.13
2019-03-19T10:00:57.067Z,8.13
2019-03-19T10:03:26.446Z,10.70
2019-03-19T10:05:55.793Z,7.90
2019-03-19T10:08:25.169Z,3.13
2019-03-19T10:10:54.526Z,6.93
2019-03-19T10:13:23.894Z,9.17
2019-03-19T10:15:53.255Z,10.53
2019-03-19T10:18:22.630Z,5.83
2019-03-19T10:20:51.989Z,10.13
2019-03-19T10:23:21.353Z,6.00
2019-03-19T10:25:50.715Z,4.80
2019-03-19T10:28:27.828Z,4.90
2019-03-19T10:30:58.818Z,6.20
2019-03-19T10:33:28.473Z,10.67
2019-03-19T10:35:57.842Z,5.17
2019-03-19T10:38:27.216Z,4.73
2019-03-19T10:40:56.816Z,5.87
2019-03-19T10:43:26.191Z,5.47
2019-03-19T10:45:55.805Z,5.03
2019-03-19T10:48:25.156Z,6.90
2019-03-19T10:53:22.383Z,5.90
2019-03-19T10:55:53.351Z,5.13
2019-03-19T10:58:22.724Z,4.03
2019-03-19T11:00:52.096Z,5.97
2019-03-19T11:03:21.463Z,4.83
2019-03-19T11:05:50.829Z,3.50
2019-03-19T11:08:20.195Z,4.07
2019-03-19T11:10:49.564Z,1.37
2019-03-19T11:13:19.163Z,6.90
2019-03-19T11:15:48.536Z,8.60
2019-03-19T11:18:17.917Z,6.50
2019-03-19T11:20:47.548Z,2.23
2019-03-19T11:23:16.919Z,4.23
2019-03-19T11:25:54.190Z,6.13
2019-03-19T11:28:22.802Z,7.47
2019-03-19T11:30:52.151Z,4.33
2019-03-19T11:33:21.529Z,6.37
2019-03-19T11:35:50.883Z,6.00
2019-03-19T11:38:20.258Z,4.70
2019-03-19T11:40:49.611Z,5.70
2019-03-19T11:43:18.983Z,4.50
2019-03-19T11:45:48.327Z,4.13
2019-03-19T11:48:17.706Z,8.13
2019-03-19T11:50:47.048Z,3.37
2019-03-19T11:53:16.423Z,5.60
2019-03-19T11:55:45.778Z,3.90
2019-03-19T11:58:15.143Z,7.87
2019-03-19T12:01:03.647Z,3.70
2019-03-19T12:03:33.011Z,4.03
2019-03-19T12:06:02.645Z,6.10
2019-03-19T12:08:32.008Z,4.93
2019-03-19T12:11:01.371Z,5.17
2019-03-19T12:13:30.731Z,4.37
2019-03-19T12:16:00.101Z,2.03
2019-03-19T12:18:29.475Z,7.30
2019-03-19T12:20:59.141Z,5.47
2019-03-19T12:23:48.131Z,3.13
2019-03-19T12:26:17.494Z,4.23
2019-03-19T12:31:54.457Z,3.97
2019-03-19T12:34:23.815Z,1.80
2019-03-19T12:36:53.185Z,5.83
2019-03-19T12:39:22.550Z,2.30
2019-03-19T12:42:04.154Z,2.87
2019-03-19T12:44:33.521Z,7.13
2019-03-19T12:47:02.890Z,3.37
2019-03-19T12:49:32.245Z,5.90
2019-03-19T12:52:01.613Z,5.13
2019-03-19T12:54:30.962Z,1.97
2019-03-19T12:57:00.328Z,4.10
2019-03-19T12:59:29.682Z,5.73
2019-03-19T13:01:59.060Z,3.00
2019-03-19T13:04:28.420Z,3.17
2019-03-19T13:06:57.823Z,5.07
2019-03-19T13:09:27.158Z,3.80
2019-03-19T13:11:56.518Z,1.90
2019-03-19T13:14:25.899Z,3.27
2019-03-19T13:16:56.890Z,2.47
2019-03-19T13:19:26.263Z,4.53
2019-03-19T13:21:55.632Z,4.60
2019-03-19T13:24:24.999Z,1.90
2019-03-19T13:26:54.608Z,3.57
2019-03-19T13:29:23.958Z,3.83
2019-03-19T13:31:53.331Z,2.70
2019-03-19T13:34:24.301Z,3.37
2019-03-19T13:36:53.667Z,4.23
2019-03-19T13:39:23.036Z,2.53
2019-03-19T13:41:52.391Z,8.27
2019-03-19T13:44:22.067Z,2.30
2019-03-19T13:46:51.422Z,4.33
2019-03-19T13:49:20.790Z,3.33
2019-03-19T13:51:50.146Z,2.90
2019-03-19T13:54:19.834Z,6.20
2019-03-19T13:56:49.147Z,5.43
2019-03-19T13:59:18.527Z,2.93
2019-03-19T14:01:48.119Z,7.50
2019-03-19T14:04:17.500Z,4.73
2019-03-19T14:06:47.209Z,4.40
2019-03-19T14:09:16.609Z,3.50
2019-03-19T14:11:45.935Z,7.13
2019-03-19T14:14:15.303Z,3.30
2019-03-19T14:16:44.943Z,3.87
2019-03-19T14:19:14.304Z,4.63
2019-03-19T14:21:43.654Z,6.33
2019-03-19T14:24:13.025Z,4.47
2019-03-19T14:26:42.378Z,4.97
2019-03-19T14:29:11.745Z,5.53
2019-03-19T14:31:41.104Z,3.47
2019-03-19T14:34:10.450Z,6.60
2019-03-19T14:36:39.826Z,2.00
2019-03-19T14:39:10.796Z,6.17
2019-03-19T14:41:40.166Z,4.20
2019-03-19T14:44:09.530Z,4.73
2019-03-19T14:46:38.885Z,3.23
2019-03-19T14:49:08.260Z,2.30
2019-03-19T14:51:39.236Z,5.23
2019-03-19T14:54:10.557Z,4.00
2019-03-19T14:56:49.114Z,4.47
2019-03-19T14:59:18.478Z,5.17
2019-03-19T15:01:47.849Z,7.20
2019-03-19T15:04:17.220Z,5.80
2019-03-19T15:06:46.581Z,3.40
2019-03-19T15:09:15.954Z,4.07
2019-03-19T15:11:45.325Z,4.73
2019-03-19T15:14:14.682Z,2.73
2019-03-19T15:16:44.118Z,5.00
2019-03-19T15:19:13.485Z,3.80
2019-03-19T15:21:42.864Z,4.60
2019-03-19T15:24:12.223Z,5.80
2019-03-19T15:26:41.581Z,5.23
2019-03-19T15:29:12.562Z,3.47
2019-03-19T15:31:41.938Z,4.20
2019-03-19T15:34:11.288Z,6.27
2019-03-19T15:36:40.663Z,5.13
2019-03-19T15:39:11.646Z,5.00
2019-03-19T15:41:40.999Z,3.20
2019-03-19T15:44:10.374Z,5.27
2019-03-19T15:46:39.722Z,5.97
2019-03-19T15:49:09.456Z,6.37
2019-03-19T15:51:38.813Z,3.07
2019-03-19T15:54:08.182Z,3.23
2019-03-19T15:56:37.865Z,3.67
2019-03-19T15:59:07.245Z,2.27
2019-03-19T16:01:40.391Z,3.60
2019-03-19T16:04:13.193Z,4.77
2019-03-19T16:06:42.549Z,3.07
2019-03-19T16:09:13.531Z,4.40
2019-03-19T16:11:42.878Z,6.33
2019-03-19T16:14:12.618Z,4.73
2019-03-19T16:16:42.312Z,4.80
2019-03-19T16:19:11.691Z,5.23
2019-03-19T16:21:41.040Z,4.17
2019-03-19T16:24:10.412Z,3.33
2019-03-19T16:26:39.780Z,7.60
2019-03-19T16:29:09.144Z,5.20
2019-03-19T16:31:38.495Z,6.03
2019-03-19T16:34:07.875Z,3.83
2019-03-19T16:36:37.226Z,6.13
2019-03-19T16:39:46.631Z,6.37
2019-03-19T16:42:16.285Z,3.10
2019-03-19T16:44:45.650Z,5.63
2019-03-19T16:47:15.297Z,7.33
2019-03-19T16:49:44.666Z,5.10
2019-03-19T16:52:14.019Z,5.67
2019-03-19T16:54:43.387Z,5.80
2019-03-19T16:57:12.733Z,9.53
2019-03-19T16:59:43.730Z,9.13
2019-03-19T17:02:13.089Z,10.20
2019-03-19T17:04:42.445Z,32.03
2019-03-19T17:07:13.438Z,34.60
2019-03-19T17:09:44.747Z,44.43
2019-03-19T17:12:14.411Z,22.25
2019-03-19T17:14:44.097Z,21.60
2019-03-19T17:17:13.482Z,10.07
2019-03-19T17:19:43.137Z,10.93
2019-03-19T17:22:12.495Z,10.80
2019-03-19T17:25:01.512Z,8.30
2019-03-19T17:27:31.107Z,7.23
2019-03-19T17:30:02.117Z,6.47
2019-03-19T17:32:33.240Z,4.63
2019-03-19T17:35:02.613Z,7.43
2019-03-19T17:37:32.081Z,10.20
2019-03-19T17:42:55.371Z,7.67
2019-03-19T17:45:25.141Z,6.37
2019-03-19T17:47:54.814Z,5.92
2019-03-19T17:53:26.226Z,13.38
2019-03-19T17:55:55.601Z,9.97
2019-03-19T17:58:25.262Z,6.83
2019-03-19T18:03:34.187Z,11.47
2019-03-19T18:06:03.570Z,17.27
2019-03-19T18:08:33.224Z,11.43
2019-03-19T18:11:02.902Z,8.23
2019-03-19T18:13:32.265Z,6.63
2019-03-19T18:16:01.638Z,9.50
2019-03-19T18:18:31.539Z,8.73
2019-03-19T18:21:01.152Z,9.90
2019-03-19T18:23:30.507Z,11.70
2019-03-19T18:25:59.882Z,17.00
2019-03-19T18:28:29.551Z,20.27
2019-03-19T18:31:11.991Z,23.67
2019-03-19T18:33:41.641Z,17.07
2019-03-19T18:36:11.191Z,18.80
2019-03-19T18:38:40.714Z,19.63
2019-03-19T18:41:10.417Z,16.83
2019-03-19T18:43:40.937Z,20.95
2019-03-19T18:46:10.290Z,22.83
2019-03-19T18:48:40.646Z,17.62
2019-03-19T18:51:10.508Z,13.00
2019-03-19T18:53:40.626Z,11.03
2019-03-19T18:56:10.513Z,8.88
2019-03-19T18:58:40.743Z,7.17
2019-03-19T19:01:29.992Z,7.53
2019-03-19T19:03:59.359Z,8.67
2019-03-19T19:06:30.343Z,13.07
2019-03-19T19:08:59.716Z,7.80
2019-03-19T19:11:34.442Z,8.67
2019-03-19T19:14:03.805Z,4.80
2019-03-19T19:16:52.762Z,7.77
2019-03-19T19:19:22.386Z,8.50
2019-03-19T19:21:53.662Z,6.80
2019-03-19T19:24:23.319Z,3.65
2019-03-19T19:26:52.691Z,4.77
2019-03-19T19:29:35.180Z,7.57
2019-03-19T19:32:04.542Z,8.10
2019-03-19T19:34:33.907Z,7.57
2019-03-19T19:37:16.426Z,8.07
2019-03-19T19:39:46.445Z,12.67
2019-03-19T19:42:15.816Z,9.47
2019-03-19T19:44:45.471Z,7.12
2019-03-19T19:47:14.843Z,8.83
2019-03-19T19:49:44.664Z,12.05
2019-03-19T19:52:14.013Z,7.90
2019-03-19T19:54:45.003Z,12.23
2019-03-19T19:57:26.119Z,25.43
2019-03-19T19:59:55.689Z,45.57
2019-03-19T20:02:25.353Z,64.55
2019-03-19T20:05:02.916Z,48.43
2019-03-19T20:07:45.215Z,25.50
2019-03-19T20:13:16.936Z,10.63
2019-03-19T20:15:46.594Z,9.10
2019-03-19T20:18:15.948Z,11.70
2019-03-19T20:20:45.611Z,11.35
2019-03-19T20:23:14.978Z,7.30
2019-03-19T20:25:44.817Z,10.23
2019-03-19T20:28:14.214Z,12.77
2019-03-19T20:30:43.583Z,13.57
2019-03-19T20:33:24.211Z,9.77
2019-03-19T20:36:03.432Z,8.58
2019-03-19T20:38:32.812Z,10.60
2019-03-19T20:41:04.332Z,10.83
2019-03-19T20:43:33.699Z,7.70
2019-03-19T20:48:43.257Z,7.57
2019-03-19T20:51:12.606Z,9.07
2019-03-19T20:53:42.244Z,8.20
2019-03-19T20:56:11.680Z,9.30
2019-03-19T20:58:43.749Z,9.40
2019-03-19T21:01:17.681Z,11.90
2019-03-19T21:03:49.371Z,6.50
2019-03-19T21:06:18.774Z,10.30
2019-03-19T21:08:48.384Z,8.20
2019-03-19T21:11:17.805Z,12.90
2019-03-19T21:13:47.149Z,8.80
2019-03-19T21:16:16.672Z,14.50
2019-03-19T21:18:46.025Z,9.50
2019-03-19T21:21:27.768Z,10.97
2019-03-19T21:23:57.406Z,10.23
2019-03-19T21:26:26.806Z,14.13
2019-03-19T21:28:56.162Z,10.87
2019-03-19T21:31:26.069Z,12.17
2019-03-19T21:33:55.718Z,6.05
2019-03-19T21:36:25.100Z,10.60
2019-03-19T21:38:54.769Z,8.40
2019-03-19T21:41:24.122Z,9.33
2019-03-19T21:43:53.808Z,7.55
2019-03-19T21:46:23.152Z,10.80
2019-03-19T21:48:52.811Z,9.35
2019-03-19T21:51:22.171Z,16.03
2019-03-19T21:53:51.844Z,11.87
2019-03-19T21:56:21.208Z,9.87
2019-03-19T21:58:50.813Z,11.20
2019-03-19T22:01:21.778Z,13.23
2019-03-19T22:04:02.698Z,11.53
2019-03-19T22:06:32.959Z,13.77
2019-03-19T22:12:04.768Z,7.40
2019-03-19T22:14:34.128Z,8.80
2019-03-19T22:17:16.639Z,9.97
2019-03-19T22:19:46.086Z,7.47
2019-03-19T22:22:15.781Z,8.23
2019-03-19T22:24:45.199Z,9.20
2019-03-19T22:27:14.849Z,11.20
2019-03-19T22:29:44.482Z,6.57
2019-03-19T22:32:13.924Z,9.23
2019-03-19T22:34:43.291Z,9.47
2019-03-19T22:37:13.128Z,15.70
2019-03-19T22:42:31.224Z,10.17
2019-03-19T22:45:00.743Z,9.10
2019-03-19T22:47:31.988Z,7.83
2019-03-19T22:50:01.349Z,11.40
2019-03-19T22:52:30.974Z,8.03
2019-03-19T22:55:00.418Z,9.30
2019-03-19T22:57:29.857Z,7.67
2019-03-19T22:59:59.207Z,14.10
2019-03-19T23:02:28.943Z,9.78
2019-03-19T23:05:00.423Z,7.87
2019-03-19T23:07:29.993Z,6.23
2019-03-19T23:09:59.344Z,11.60
2019-03-19T23:12:28.848Z,10.03
2019-03-19T23:14:58.486Z,7.53
2019-03-19T23:17:28.005Z,13.00
2019-03-19T23:19:57.557Z,7.17
2019-03-19T23:22:33.903Z,9.30
2019-03-19T23:25:14.553Z,10.73
2019-03-19T23:27:44.187Z,9.10
2019-03-19T23:33:15.893Z,9.00
2019-03-19T23:35:45.290Z,9.80
2019-03-19T23:38:14.960Z,11.15
2019-03-19T23:40:44.322Z,8.20
2019-03-19T23:43:33.287Z,10.60
2019-03-19T23:46:02.937Z,13.40
2019-03-19T23:48:32.306Z,9.30
2019-03-19T23:51:01.888Z,7.73
2019-03-19T23:53:31.245Z,9.50
2019-03-19T23:56:01.202Z,9.30
2019-03-19T23:58:31.231Z,12.82
